Time;durP1;ratioP1;P1;durP2;ratioP2;P2;SDS_P1;SDS_P2;PMS_P1;PMS_P2;Temp;Humidity;BMP_temperature;BMP_pressure;BME280_temperature;BME280_humidity;BME280_pressure;Samples;Min_cycle;Max_cycle;Signal;HPM_P1;HPM_P2
2022/05/21 00:02:00;;;;;;;5.40;2.35;;;;;;;19.90;100.00;97062.56;5030213;28;20082;-64
2022/05/21 00:04:25;;;;;;;6.55;3.20;;;;;;;19.74;100.00;97072.31;5030889;28;20033;-66
2022/05/21 00:06:51;;;;;;;8.52;2.80;;;;;;;19.68;100.00;97054.53;5045300;28;20051;-63
2022/05/21 00:09:18;;;;;;;8.13;2.88;;;;;;;19.57;100.00;97054.69;5030692;28;20033;-65
2022/05/21 00:11:44;;;;;;;6.43;2.63;;;;;;;19.52;100.00;97060.69;5029596;28;20041;-64
2022/05/21 00:14:09;;;;;;;4.30;2.53;;;;;;;19.45;100.00;97078.25;5030579;28;20045;-65
2022/05/21 00:16:35;;;;;;;5.70;2.70;;;;;;;19.42;100.00;97087.41;5030075;28;20108;-64
2022/05/21 00:19:00;;;;;;;7.57;2.78;;;;;;;19.33;100.00;97091.88;5030403;28;20037;-65
2022/05/21 00:21:25;;;;;;;6.35;3.00;;;;;;;19.31;100.00;97108.97;5030471;28;20053;-66
2022/05/21 00:23:51;;;;;;;7.57;3.17;;;;;;;19.21;100.00;97105.13;5030495;28;20053;-66
2022/05/21 00:26:17;;;;;;;7.53;3.47;;;;;;;19.13;100.00;97095.28;5029824;28;20037;-64
2022/05/21 00:28:45;;;;;;;6.72;2.88;;;;;;;19.03;100.00;97107.28;5030694;28;20486;-63
2022/05/21 00:31:14;;;;;;;9.15;3.13;;;;;;;19.09;100.00;97113.97;5030501;28;20112;-66
2022/05/21 00:33:39;;;;;;;7.93;3.00;;;;;;;19.04;100.00;97111.66;5037856;28;20112;-67
2022/05/21 00:36:07;;;;;;;4.88;2.72;;;;;;;19.06;100.00;97114.78;5033033;28;20033;-67
2022/05/21 00:38:32;;;;;;;3.88;2.80;;;;;;;19.17;100.00;97125.78;5028467;28;20029;-66
2022/05/21 00:40:58;;;;;;;6.55;3.10;;;;;;;19.12;100.00;97129.00;5029332;28;20029;-66
2022/05/21 00:43:47;;;;;;;5.47;2.70;;;;;;;19.12;100.00;97126.22;5030344;28;20029;-65
2022/05/21 00:46:16;;;;;;;6.78;3.00;;;;;;;19.20;100.00;97138.84;5045667;28;20029;-66
2022/05/21 00:48:43;;;;;;;7.85;3.03;;;;;;;19.21;100.00;97135.66;5030690;28;20057;-67
2022/05/21 00:51:16;;;;;;;5.72;3.22;;;;;;;19.25;100.00;97146.72;5030272;28;20153;-66
2022/05/21 00:53:45;;;;;;;7.45;3.55;;;;;;;19.14;100.00;97148.81;5033086;28;20026;-65
2022/05/21 00:56:11;;;;;;;8.00;3.70;;;;;;;19.18;100.00;97133.72;5034924;28;20033;-67
2022/05/21 01:01:24;;;;;;;5.05;2.50;;;;;;;19.09;100.00;97147.28;5036515;28;20113;-67
2022/05/21 01:03:49;;;;;;;9.57;3.22;;;;;;;18.98;100.00;97144.63;5035807;28;20390;-68
2022/05/21 01:06:16;;;;;;;13.70;3.45;;;;;;;19.03;100.00;97160.03;5035236;28;20082;-67
2022/05/21 01:08:41;;;;;;;6.75;3.10;;;;;;;19.03;100.00;97148.91;5036472;28;20033;-67
2022/05/21 01:11:12;;;;;;;8.52;3.10;;;;;;;19.06;100.00;97151.66;5042899;28;20044;-68
2022/05/21 01:13:40;;;;;;;7.00;3.20;;;;;;;18.83;100.00;97159.81;5043585;28;20040;-68
2022/05/21 01:16:06;;;;;;;6.68;3.00;;;;;;;18.85;100.00;97152.69;5043921;28;20095;-68
2022/05/21 01:18:32;;;;;;;8.40;2.75;;;;;;;18.71;100.00;97161.09;5044100;28;20026;-68
2022/05/21 01:20:59;;;;;;;6.53;3.38;;;;;;;18.70;100.00;97153.97;5041558;28;20305;-67
2022/05/21 01:23:26;;;;;;;11.38;4.57;;;;;;;18.59;100.00;97175.47;5041034;28;20079;-68
2022/05/21 01:25:53;;;;;;;8.23;3.40;;;;;;;18.54;100.00;97179.44;5040789;28;20089;-67
2022/05/21 01:28:21;;;;;;;7.75;3.97;;;;;;;18.47;100.00;97177.50;5041726;28;20037;-66
2022/05/21 01:30:56;;;;;;;8.27;4.05;;;;;;;18.64;100.00;97189.69;5043988;28;20049;-67
2022/05/21 01:33:27;;;;;;;12.40;4.10;;;;;;;18.53;100.00;97200.06;5043962;28;20067;-67
2022/05/21 01:35:53;;;;;;;8.38;4.05;;;;;;;18.36;100.00;97182.34;5034590;28;20498;-68
2022/05/21 01:38:22;;;;;;;6.35;3.88;;;;;;;18.31;100.00;97191.09;5034561;28;20056;-67
2022/05/21 01:40:47;;;;;;;9.48;4.22;;;;;;;18.38;100.00;97202.13;5034573;28;20383;-67
2022/05/21 01:45:58;;;;;;;11.73;4.80;;;;;;;17.85;100.00;97208.75;5042089;28;20084;-66
2022/05/21 01:48:25;;;;;;;9.25;4.97;;;;;;;17.75;100.00;97196.50;5034969;28;20026;-67
2022/05/21 01:50:53;;;;;;;8.80;4.70;;;;;;;17.72;100.00;97189.78;5032025;28;20482;-68
2022/05/21 01:53:20;;;;;;;11.60;4.63;;;;;;;17.88;100.00;97169.97;5048991;28;20041;-68
2022/05/21 01:55:47;;;;;;;9.55;4.82;;;;;;;17.84;100.00;97169.16;5032282;28;20088;-68
2022/05/21 01:58:13;;;;;;;19.05;7.85;;;;;;;18.01;100.00;97172.28;5033658;28;20033;-68
2022/05/21 02:00:40;;;;;;;9.65;5.13;;;;;;;17.94;100.00;97192.50;5046780;28;20541;-66
2022/05/21 02:03:07;;;;;;;12.38;4.75;;;;;;;17.99;100.00;97196.81;5032701;28;20091;-67
2022/05/21 02:05:32;;;;;;;9.00;3.97;;;;;;;18.06;100.00;97207.88;5030687;28;20119;-66
2022/05/21 02:07:58;;;;;;;6.03;4.10;;;;;;;17.93;100.00;97208.34;5032957;28;20201;-67
2022/05/21 02:10:23;;;;;;;9.70;4.10;;;;;;;17.75;100.00;97205.63;5032357;28;20413;-67
2022/05/21 02:12:49;;;;;;;6.82;3.83;;;;;;;17.84;100.00;97196.06;5032742;28;20147;-68
2022/05/21 02:15:14;;;;;;;8.95;4.75;;;;;;;17.89;100.00;97190.16;5032231;28;20037;-67
2022/05/21 02:17:39;;;;;;;6.45;4.32;;;;;;;17.95;100.00;97188.50;5032357;28;20021;-67
2022/05/21 02:20:06;;;;;;;6.45;3.90;;;;;;;17.92;100.00;97192.13;5031914;28;20036;-67
2022/05/21 02:22:32;;;;;;;8.48;4.40;;;;;;;17.88;100.00;97189.38;5033302;28;20490;-67
2022/05/21 02:24:58;;;;;;;7.63;4.22;;;;;;;17.95;100.00;97180.19;5032354;28;20029;-65
2022/05/21 02:27:23;;;;;;;10.40;4.30;;;;;;;18.05;100.00;97184.91;5032086;28;20390;-67
2022/05/21 02:29:49;;;;;;;10.93;4.35;;;;;;;17.91;100.00;97180.22;5032155;28;20037;-65
2022/05/21 02:32:14;;;;;;;9.48;4.60;;;;;;;17.76;100.00;97178.69;5032331;28;20037;-67
2022/05/21 02:34:42;;;;;;;12.13;4.75;;;;;;;17.72;100.00;97187.03;5034453;28;20091;-68
2022/05/21 02:39:52;;;;;;;7.10;4.38;;;;;;;17.50;100.00;97200.16;5055837;28;20033;-68
2022/05/21 02:45:19;;;;;;;11.30;5.57;;;;;;;17.36;100.00;97189.91;5013382;28;20498;-68
2022/05/21 02:47:45;;;;;;;10.88;4.80;;;;;;;17.52;100.00;97194.19;5031164;28;20064;-69
2022/05/21 02:50:13;;;;;;;12.85;4.97;;;;;;;17.63;100.00;97194.97;5047872;28;20037;-66
2022/05/21 02:52:39;;;;;;;10.45;4.13;;;;;;;17.71;100.00;97192.97;5033105;28;20364;-68
2022/05/21 02:55:06;;;;;;;8.70;4.53;;;;;;;17.76;100.00;97189.78;5032773;28;20039;-66
2022/05/21 02:57:32;;;;;;;6.15;4.18;;;;;;;17.82;100.00;97192.91;5031872;28;20022;-67
2022/05/21 03:00:04;;;;;;;11.10;3.88;;;;;;;17.80;100.00;97182.22;5031483;28;20033;-68
2022/05/21 03:02:30;;;;;;;7.22;3.95;;;;;;;17.77;100.00;97183.03;5031427;28;20048;-66
2022/05/21 03:04:55;;;;;;;7.18;4.07;;;;;;;17.76;100.00;97181.47;5035069;28;20100;-67
2022/05/21 03:07:20;;;;;;;12.35;4.07;;;;;;;17.87;100.00;97185.00;5048255;28;20038;-66
2022/05/21 03:12:30;;;;;;;8.68;3.90;;;;;;;17.58;100.00;97182.31;5028509;28;20025;-64
2022/05/21 03:14:55;;;;;;;5.85;4.00;;;;;;;17.62;100.00;97189.84;5031120;28;20038;-66
2022/05/21 03:17:21;;;;;;;8.57;4.28;;;;;;;17.45;100.00;97178.41;5029641;28;20029;-66
2022/05/21 03:19:47;;;;;;;9.48;4.43;;;;;;;17.28;100.00;97179.25;5031565;28;20041;-64
2022/05/21 03:22:12;;;;;;;8.40;3.78;;;;;;;17.34;100.00;97174.88;5030580;28;20116;-65
2022/05/21 03:24:37;;;;;;;8.73;4.22;;;;;;;17.38;100.00;97184.75;5031123;28;20367;-65
2022/05/21 03:27:03;;;;;;;10.65;4.47;;;;;;;17.51;100.00;97181.56;5031085;28;20033;-64
2022/05/21 03:29:28;;;;;;;11.88;4.45;;;;;;;17.66;100.00;97176.75;5031092;28;20041;-65
2022/05/21 03:31:54;;;;;;;8.52;4.20;;;;;;;17.51;100.00;97187.09;5031618;28;20031;-65
2022/05/21 03:34:20;;;;;;;7.22;4.07;;;;;;;17.47;100.00;97181.56;5031626;28;20079;-64
2022/05/21 03:36:45;;;;;;;7.47;4.50;;;;;;;17.45;100.00;97174.84;5029840;28;20040;-65
2022/05/21 03:39:11;;;;;;;9.85;3.97;;;;;;;17.49;100.00;97178.41;5030348;28;20391;-66
2022/05/21 03:41:36;;;;;;;5.13;3.75;;;;;;;17.48;100.00;97182.34;5030409;28;20048;-65
2022/05/21 03:44:02;;;;;;;8.85;4.10;;;;;;;17.57;100.00;97185.47;5031582;28;20017;-66
2022/05/21 03:46:28;;;;;;;6.82;4.00;;;;;;;17.55;100.00;97183.13;5030339;28;20048;-65
2022/05/21 03:48:53;;;;;;;6.43;3.70;;;;;;;17.57;100.00;97188.25;5035790;28;20041;-65
2022/05/21 03:51:19;;;;;;;6.50;3.22;;;;;;;17.54;100.00;97187.09;5036098;28;20029;-66
2022/05/21 03:53:44;;;;;;;8.57;4.00;;;;;;;17.56;100.00;97184.72;5031635;28;20103;-66
2022/05/21 03:56:10;;;;;;;7.47;4.32;;;;;;;17.47;100.00;97186.34;5030679;28;20041;-65
2022/05/21 03:58:35;;;;;;;7.50;3.72;;;;;;;17.35;100.00;97193.84;5046949;28;20432;-66
2022/05/21 04:01:01;;;;;;;5.68;3.63;;;;;;;17.40;100.00;97195.44;5029512;28;20086;-66
2022/05/21 04:03:26;;;;;;;10.73;4.07;;;;;;;17.35;100.00;97199.41;5031045;28;20040;-66
2022/05/21 04:05:56;;;;;;;8.43;4.38;;;;;;;17.34;100.00;97199.78;5029814;28;20029;-65
2022/05/21 04:08:22;;;;;;;8.85;4.05;;;;;;;17.30;100.00;97210.09;5031779;28;20086;-66
2022/05/21 04:10:48;;;;;;;15.40;4.55;;;;;;;17.34;100.00;97208.91;5031965;28;20037;-66
2022/05/21 04:13:15;;;;;;;8.10;3.88;;;;;;;17.41;100.00;97210.84;5032796;28;20025;-66
2022/05/21 04:15:41;;;;;;;7.40;3.88;;;;;;;17.44;100.00;97223.13;5029651;28;20036;-66
2022/05/21 04:18:07;;;;;;;6.95;3.78;;;;;;;17.33;100.00;97228.69;5029694;28;20029;-66
2022/05/21 04:20:32;;;;;;;8.88;3.95;;;;;;;17.29;100.00;97233.44;5030348;28;20025;-65
2022/05/21 04:22:58;;;;;;;6.40;4.20;;;;;;;17.25;100.00;97230.69;5030843;28;20037;-66
2022/05/21 04:25:24;;;;;;;6.22;3.72;;;;;;;17.28;100.00;97240.94;5029863;28;20080;-64
2022/05/21 04:27:50;;;;;;;8.98;4.60;;;;;;;17.36;100.00;97239.75;5029642;28;20091;-66
2022/05/21 04:30:19;;;;;;;7.45;3.28;;;;;;;17.36;100.00;97241.72;5028759;28;20437;-66
2022/05/21 04:32:45;;;;;;;13.65;4.47;;;;;;;17.36;100.00;97238.97;5030949;28;20136;-66
2022/05/21 04:35:12;;;;;;;7.43;3.85;;;;;;;17.55;100.00;97238.50;5029675;28;20034;-65
2022/05/21 04:37:39;;;;;;;5.82;3.63;;;;;;;17.76;100.00;97245.19;5030228;28;20029;-65
2022/05/21 04:40:07;;;;;;;5.43;3.58;;;;;;;17.82;100.00;97253.88;5030810;28;20367;-65
2022/05/21 04:42:32;;;;;;;6.50;3.92;;;;;;;17.66;100.00;97244.00;5029240;28;20430;-64
2022/05/21 04:44:58;;;;;;;6.88;3.47;;;;;;;17.85;100.00;97253.06;5029216;28;20042;-65
2022/05/21 04:47:23;;;;;;;6.32;3.45;;;;;;;18.03;100.00;97253.03;5029155;28;20037;-65
2022/05/21 04:49:48;;;;;;;4.82;3.33;;;;;;;18.16;100.00;97256.94;5030467;28;20048;-65
2022/05/21 04:52:14;;;;;;;8.18;3.67;;;;;;;18.33;100.00;97252.50;5028381;28;20037;-65
2022/05/21 04:54:39;;;;;;;5.70;3.30;;;;;;;18.17;100.00;97252.97;5030482;28;20076;-65
2022/05/21 04:57:06;;;;;;;4.55;2.88;;;;;;;18.27;100.00;97254.88;5028671;28;20521;-65
2022/05/21 04:59:32;;;;;;;4.53;2.90;;;;;;;18.32;100.00;97260.00;5030450;28;20037;-64
2022/05/21 05:01:58;;;;;;;9.30;2.90;;;;;;;18.31;100.00;97254.84;5029859;28;20151;-65
2022/05/21 05:04:23;;;;;;;4.93;3.28;;;;;;;18.28;100.00;97256.47;5029220;28;20394;-65
2022/05/21 05:06:49;;;;;;;4.35;3.10;;;;;;;18.30;100.00;97256.84;5029937;28;20490;-66
2022/05/21 05:09:17;;;;;;;6.32;2.70;;;;;;;18.37;100.00;97250.50;5030409;28;20037;-65
2022/05/21 05:11:42;;;;;;;6.93;3.00;;;;;;;18.54;100.00;97257.88;5028970;28;20104;-65
2022/05/21 05:14:07;;;;;;;5.72;3.10;;;;;;;18.61;100.00;97253.50;5030290;28;20105;-65
2022/05/21 05:16:33;;;;;;;5.90;3.05;;;;;;;18.45;100.00;97252.00;5031166;28;20033;-66
2022/05/21 05:18:59;;;;;;;5.90;3.45;;;;;;;18.59;100.00;97256.69;5039274;28;20037;-65
2022/05/21 05:21:24;;;;;;;5.35;2.80;;;;;;;18.57;100.00;97261.84;5028003;28;20064;-65
2022/05/21 05:23:50;;;;;;;4.57;2.75;;;;;;;18.39;100.00;97258.41;5030194;28;20399;-65
2022/05/21 05:26:16;;;;;;;4.85;2.67;;;;;;;18.48;100.00;97253.19;5028112;28;20041;-65
2022/05/21 05:28:41;;;;;;;7.72;3.25;;;;;;;18.57;100.00;97252.75;5030175;28;20032;-65
2022/05/21 05:31:06;;;;;;;5.18;2.80;;;;;;;19.31;100.00;97249.81;5029310;28;21908;-63
2022/05/21 05:33:33;;;;;;;5.45;2.63;;;;;;;20.11;98.58;97251.31;5030052;28;20083;-64
2022/05/21 05:35:59;;;;;;;8.02;2.75;;;;;;;20.76;92.76;97248.47;5011285;28;20515;-65
2022/05/21 05:38:25;;;;;;;3.67;2.30;;;;;;;20.55;93.77;97252.31;5029761;28;20021;-65
2022/05/21 05:40:52;;;;;;;7.97;2.70;;;;;;;20.40;93.69;97242.59;5033213;28;20389;-65
2022/05/21 05:43:19;;;;;;;4.57;2.60;;;;;;;20.05;93.29;97244.66;5033393;28;20052;-65
2022/05/21 05:45:44;;;;;;;4.93;2.67;;;;;;;19.94;95.88;97252.34;5034729;28;20045;-65
2022/05/21 05:48:10;;;;;;;3.58;2.05;;;;;;;20.77;90.55;97252.03;5034887;28;20083;-65
2022/05/21 05:50:35;;;;;;;7.32;2.35;;;;;;;20.01;94.20;97255.03;5032692;28;20033;-66
2022/05/21 05:53:06;;;;;;;3.70;2.35;;;;;;;20.42;92.55;97246.56;5032521;28;20051;-65
2022/05/21 05:55:32;;;;;;;4.40;2.13;;;;;;;20.99;87.06;97246.91;5032321;28;20033;-65
2022/05/21 05:57:58;;;;;;;4.63;2.40;;;;;;;21.63;82.97;97247.81;5032776;28;20485;-65
2022/05/21 06:00:25;;;;;;;3.95;2.45;;;;;;;21.55;84.82;97261.13;5033360;28;20087;-65
2022/05/21 06:03:01;;;;;;;4.13;2.03;;;;;;;20.88;84.99;97265.78;5034451;28;20030;-65
2022/05/21 06:05:32;;;;;;;4.22;2.67;;;;;;;20.84;85.84;97268.63;5032668;28;20035;-65
2022/05/21 06:08:04;;;;;;;3.83;2.50;;;;;;;20.22;90.09;97265.91;5026356;28;20426;-65
2022/05/21 06:10:36;;;;;;;4.10;2.38;;;;;;;20.33;91.01;97270.50;5033933;28;20032;-63
2022/05/21 06:13:02;;;;;;;8.23;3.65;;;;;;;20.36;92.36;97266.91;5032351;28;20488;-64
2022/05/21 06:15:28;;;;;;;3.80;2.22;;;;;;;20.28;90.02;97265.44;5032175;28;20508;-66
2022/05/21 06:17:54;;;;;;;3.83;2.40;;;;;;;20.25;90.01;97273.38;5032102;28;20022;-65
2022/05/21 06:20:23;;;;;;;4.28;2.25;;;;;;;20.49;88.80;97279.06;5032686;28;20025;-62
2022/05/21 06:22:49;;;;;;;3.83;1.93;;;;;;;20.59;84.07;97280.88;5031981;28;20580;-66
2022/05/21 06:25:17;;;;;;;4.85;2.00;;;;;;;20.90;83.48;97275.28;5032930;28;20029;-66
2022/05/21 06:27:47;;;;;;;3.45;1.58;;;;;;;21.71;76.63;97276.34;5030478;28;20061;-66
2022/05/21 06:30:15;;;;;;;4.43;1.60;;;;;;;22.78;72.16;97269.75;5032358;28;20536;-66
2022/05/21 06:32:40;;;;;;;5.25;1.35;;;;;;;23.30;68.17;97274.53;5044465;28;20033;-67
2022/05/21 06:35:07;;;;;;;4.45;1.48;;;;;;;23.19;65.03;97274.00;5053912;28;20029;-67
2022/05/21 06:37:32;;;;;;;4.38;1.60;;;;;;;22.96;66.73;97272.94;5035917;28;20021;-65
2022/05/21 06:39:58;;;;;;;5.15;1.92;;;;;;;21.86;71.23;97271.28;5031939;28;20395;-66
2022/05/21 06:42:23;;;;;;;3.83;1.52;;;;;;;21.89;70.11;97264.84;5031677;28;20465;-67
2022/05/21 06:44:50;;;;;;;2.92;1.63;;;;;;;;;;5032082;28;20044;-66
2022/05/21 06:47:15;;;;;;;4.50;1.50;;;;;;;20.78;74.92;97273.91;5031757;28;20078;-65
2022/05/21 06:49:41;;;;;;;3.05;1.60;;;;;;;21.20;75.31;97273.63;5031257;28;20034;-65
2022/05/21 06:52:06;;;;;;;4.50;1.60;;;;;;;21.03;76.03;97281.06;5031026;28;20033;-63
2022/05/21 06:54:32;;;;;;;4.63;2.15;;;;;;;21.12;74.87;97284.09;5031760;28;20033;-63
2022/05/21 06:56:57;;;;;;;4.15;1.85;;;;;;;21.19;76.44;97286.78;5026568;28;20040;-64
2022/05/21 06:59:23;;;;;;;5.07;1.55;;;;;;;21.02;75.61;97284.28;5017352;28;20790;-65
2022/05/21 07:01:49;;;;;;;3.63;1.60;;;;;;;21.15;75.14;97283.25;5024882;28;20050;-64
2022/05/21 07:04:14;;;;;;;4.25;2.10;;;;;;;21.34;74.33;97290.09;5011263;28;20045;-64
2022/05/21 07:09:26;;;;;;;8.25;3.40;;;;;;;21.24;78.05;97293.06;4999996;28;20048;-66
2022/05/21 07:11:51;;;;;;;5.25;2.10;;;;;;;21.18;77.37;97279.63;5011461;28;20132;-66
2022/05/21 07:14:17;;;;;;;5.18;1.98;;;;;;;21.13;77.42;97291.25;5011066;28;20038;-64
2022/05/21 07:16:43;;;;;;;2.83;1.52;;;;;;;21.11;74.82;97292.88;5000661;28;20073;-65
2022/05/21 07:19:09;;;;;;;5.72;1.80;;;;;;;21.19;75.21;97295.13;5027236;28;20080;-63
2022/05/21 07:21:34;;;;;;;4.35;1.58;;;;;;;21.06;75.68;97294.13;5005471;28;20132;-68
2022/05/21 07:23:59;;;;;;;3.55;2.00;;;;;;;20.65;76.56;97299.94;5003119;28;20037;-63
2022/05/21 07:26:25;;;;;;;5.28;2.03;;;;;;;20.76;74.83;97281.88;4995432;28;20133;-64
2022/05/21 07:28:51;;;;;;;4.25;1.70;;;;;;;20.19;71.47;97290.97;5002336;28;20053;-63
2022/05/21 07:31:16;;;;;;;4.80;1.48;;;;;;;19.91;75.69;97287.31;5015582;28;20045;-64
2022/05/21 07:33:42;;;;;;;3.47;1.48;;;;;;;20.14;72.77;97295.00;5021248;28;20049;-63
2022/05/21 07:36:07;;;;;;;3.05;1.58;;;;;;;20.22;73.14;97287.34;5003030;28;20096;-63
2022/05/21 07:38:34;;;;;;;8.13;2.47;;;;;;;20.83;70.79;97294.09;5002774;28;20046;-64
2022/05/21 07:40:59;;;;;;;3.22;1.55;;;;;;;20.48;70.27;97294.16;5002278;28;20372;-63
2022/05/21 07:43:30;;;;;;;3.10;1.35;;;;;;;20.77;70.52;97300.13;4996285;28;20049;-63
2022/05/21 07:45:57;;;;;;;5.82;1.60;;;;;;;21.14;70.30;97303.16;5001590;28;20441;-63
2022/05/21 07:48:24;;;;;;;5.00;2.05;;;;;;;21.41;68.21;97296.75;5014120;28;20595;-63
2022/05/21 07:50:52;;;;;;;3.85;1.67;;;;;;;21.40;68.25;97298.75;5002714;28;20534;-63
2022/05/21 07:53:21;;;;;;;5.43;2.15;;;;;;;21.52;67.92;97297.41;4997531;28;20665;-63
2022/05/21 07:55:48;;;;;;;3.10;1.58;;;;;;;21.47;67.71;97298.66;5001086;28;20068;-64
2022/05/21 07:58:15;;;;;;;4.68;1.98;;;;;;;21.35;66.95;97294.44;4996243;28;20042;-64
2022/05/21 08:00:41;;;;;;;2.47;1.60;;;;;;;21.24;68.32;97293.06;5015399;28;20474;-64
2022/05/21 08:03:08;;;;;;;6.28;2.58;;;;;;;21.55;69.03;97297.34;5031524;28;20076;-64
2022/05/21 08:05:34;;;;;;;3.20;1.40;;;;;;;21.77;67.12;97288.59;5012805;28;20049;-64
2022/05/21 08:08:01;;;;;;;2.22;1.30;;;;;;;21.39;67.43;97292.41;5020922;28;20045;-64
2022/05/21 08:10:27;;;;;;;4.40;1.40;;;;;;;21.10;70.42;97291.28;5014906;28;20046;-63
2022/05/21 08:12:53;;;;;;;7.03;1.80;;;;;;;20.95;69.40;97285.94;5020492;28;20041;-63
2022/05/21 08:15:20;;;;;;;3.70;1.80;;;;;;;20.89;70.54;97290.44;5014381;28;20088;-63
2022/05/21 08:17:46;;;;;;;3.08;1.50;;;;;;;20.82;69.11;97293.31;5020378;28;20147;-66
2022/05/21 08:20:12;;;;;;;4.47;1.60;;;;;;;20.98;70.61;97287.13;5016102;28;20373;-65
2022/05/21 08:28:07;;;;;;;4.03;1.27;;;;;;;20.77;71.00;97288.22;5015561;28;20045;-65
2022/05/21 08:30:33;;;;;;;5.95;1.75;;;;;;;20.88;70.18;97288.06;5020235;28;20046;-66
2022/05/21 08:33:06;;;;;;;3.13;1.70;;;;;;;20.72;71.62;97288.69;5021938;28;20044;-65
2022/05/21 08:35:34;;;;;;;3.47;1.73;;;;;;;20.95;69.64;97293.53;5022101;28;20112;-64
2022/05/21 08:38:00;;;;;;;4.43;1.70;;;;;;;21.34;67.30;97284.53;5021469;28;20044;-62
2022/05/21 08:40:37;;;;;;;4.20;1.70;;;;;;;21.66;62.92;97293.56;5015799;28;20038;-64
2022/05/21 08:43:05;;;;;;;2.58;1.60;;;;;;;21.60;63.97;97286.91;5016769;28;20037;-62
2022/05/21 08:45:57;;;;;;;2.30;1.33;;;;;;;21.39;62.58;97284.06;5020259;28;20506;-64
2022/05/21 08:48:23;;;;;;;2.28;1.30;;;;;;;21.24;62.34;97285.50;5015258;28;21665;-64
2022/05/21 08:50:53;;;;;;;2.50;1.13;;;;;;;21.02;64.28;97284.28;5020433;28;20132;-64
2022/05/21 08:53:23;;;;;;;3.28;1.35;;;;;;;20.71;63.40;97282.34;5018262;28;20046;-65
2022/05/21 08:55:53;;;;;;;2.50;1.40;;;;;;;21.19;63.65;97278.44;5021183;28;20041;-63
2022/05/21 08:58:40;;;;;;;3.90;1.42;;;;;;;21.67;60.42;97281.22;5015611;28;20046;-63
2022/05/21 09:01:08;;;;;;;2.45;1.50;;;;;;;21.85;59.34;97272.50;5015929;28;20041;-63
2022/05/21 09:03:34;;;;;;;4.03;1.65;;;;;;;22.12;57.00;97270.34;5019985;28;20047;-62
2022/05/21 09:06:18;;;;;;;3.20;1.30;;;;;;;22.08;57.22;97272.44;5019454;28;20038;-63
2022/05/21 09:08:49;;;;;;;6.63;1.65;;;;;;;22.21;57.68;97266.22;5020764;28;20041;-64
2022/05/21 09:11:40;;;;;;;3.10;1.33;;;;;;;21.94;59.01;97272.72;5014775;28;20409;-63
2022/05/21 09:14:24;;;;;;;1.60;1.10;;;;;;;21.71;58.20;97260.41;5016549;28;20433;-64
2022/05/21 09:16:56;;;;;;;5.05;1.60;;;;;;;20.84;59.77;97256.72;5023385;28;20038;-63
2022/05/21 09:19:35;;;;;;;2.45;1.30;;;;;;;21.48;58.24;97264.03;5019046;28;20789;-62
2022/05/21 09:22:02;;;;;;;2.55;1.50;;;;;;;22.04;58.07;97266.16;5022801;28;20136;-63
2022/05/21 09:24:51;;;;;;;4.45;1.60;;;;;;;22.35;58.99;97263.16;5021173;28;20049;-62
2022/05/21 09:27:42;;;;;;;3.45;1.50;;;;;;;21.91;58.75;97266.00;4999227;28;20046;-64
2022/05/21 09:30:20;;;;;;;4.55;1.70;;;;;;;21.85;58.56;97262.13;5011773;28;20048;-63
2022/05/21 09:32:49;;;;;;;5.85;1.65;;;;;;;22.19;58.05;97258.28;5023094;28;20041;-63
2022/05/21 09:35:26;;;;;;;3.47;1.77;;;;;;;22.18;57.16;97261.47;5017830;28;20120;-62
2022/05/21 09:37:53;;;;;;;3.58;1.45;;;;;;;21.56;61.08;97261.88;5024071;28;20100;-63
2022/05/21 09:40:22;;;;;;;3.22;1.70;;;;;;;22.27;58.04;97264.50;5018686;28;20045;-64
2022/05/21 09:45:34;;;;;;;3.25;1.98;;;;;;;21.84;58.98;97265.34;5022350;28;20037;-63
2022/05/21 09:48:06;;;;;;;10.65;4.75;;;;;;;22.08;59.30;97269.66;5024071;28;20061;-63
2022/05/21 09:50:53;;;;;;;4.68;2.15;;;;;;;22.36;58.75;97264.69;5022120;28;20414;-63
2022/05/21 09:53:22;;;;;;;4.15;1.90;;;;;;;22.25;60.15;97250.16;5019198;28;20045;-63
2022/05/21 09:56:29;;;;;;;3.70;1.80;;;;;;;22.98;58.41;97258.53;5023434;28;20121;-65
2022/05/21 09:59:17;;;;;;;3.25;1.63;;;;;;;23.22;57.99;97251.56;5017635;28;20049;-61
2022/05/21 10:01:44;;;;;;;5.55;1.98;;;;;;;23.51;55.89;97256.41;5027598;28;20072;-63
2022/05/21 10:04:21;;;;;;;6.05;2.58;;;;;;;23.34;57.04;97257.69;5022062;28;20037;-65
2022/05/21 10:07:03;;;;;;;10.43;5.47;;;;;;;23.17;58.62;97259.69;5022857;28;20091;-63
2022/05/21 10:12:32;;;;;;;;;;;;;;;22.61;58.50;97249.41;5019818;28;20042;-63
2022/05/21 10:15:17;;;;;;;4.72;2.47;;;;;;;22.11;61.31;97252.06;5022731;28;20397;-64
2022/05/21 10:17:49;;;;;;;7.47;3.65;;;;;;;22.37;61.14;97248.78;5021121;28;20037;-62
2022/05/21 10:20:36;;;;;;;3.70;2.35;;;;;;;23.26;58.75;97246.69;5025999;28;20041;-64
2022/05/21 10:23:10;;;;;;;10.43;2.83;;;;;;;23.27;59.59;97241.88;5026119;28;20057;-64
2022/05/21 10:25:51;;;;;;;5.53;2.70;;;;;;;23.93;56.56;97234.16;5026330;28;20463;-64
2022/05/21 10:28:44;;;;;;;3.22;1.98;;;;;;;23.82;56.52;97245.63;5019504;28;20053;-63
2022/05/21 10:31:27;;;;;;;4.20;2.65;;;;;;;24.03;56.34;97241.44;5018264;28;20047;-61
2022/05/21 10:34:23;;;;;;;5.47;3.08;;;;;;;23.57;58.54;97229.50;5023743;28;20512;-64
2022/05/21 10:37:00;;;;;;;5.68;2.28;;;;;;;23.99;57.64;97234.38;5012785;28;20475;-63
2022/05/21 10:39:35;;;;;;;5.68;2.58;;;;;;;23.50;58.23;97238.09;5018751;28;20487;-64
2022/05/21 10:42:47;;;;;;;7.80;2.85;;;;;;;23.42;59.64;97233.91;5021787;28;20133;-64
2022/05/21 10:45:27;;;;;;;6.22;2.75;;;;;;;24.12;56.36;97229.59;5010360;28;20043;-65
2022/05/21 10:48:13;;;;;;;5.68;2.97;;;;;;;23.50;59.17;97231.69;5032937;28;20050;-65
2022/05/21 10:50:54;;;;;;;5.75;3.58;;;;;;;23.41;58.68;97221.16;5034469;28;20041;-64
2022/05/21 10:53:41;;;;;;;5.10;3.10;;;;;;;24.14;57.65;97215.94;5017731;28;20137;-64
2022/05/21 10:56:43;;;;;;;6.95;3.30;;;;;;;23.99;58.09;97217.59;5016908;28;20037;-64
2022/05/21 10:59:18;;;;;;;5.75;3.20;;;;;;;22.58;62.38;97220.38;5017248;28;20132;-65
2022/05/21 11:02:09;;;;;;;5.47;3.35;;;;;;;23.01;62.61;97212.97;5021716;28;20056;-64
2022/05/21 11:04:56;;;;;;;6.72;3.67;;;;;;;23.22;61.92;97209.66;5021379;28;20044;-64
2022/05/21 11:07:43;;;;;;;5.65;3.30;;;;;;;23.57;62.00;97217.53;5016973;28;20068;-62
2022/05/21 11:10:48;;;;;;;7.80;4.50;;;;;;;23.22;63.61;97206.06;5015147;28;20097;-64
2022/05/21 11:13:26;;;;;;;7.15;4.80;;;;;;;23.41;62.40;97204.41;5015286;28;20037;-63
2022/05/21 11:15:57;;;;;;;6.40;3.60;;;;;;;23.22;63.15;97203.28;5021758;28;20482;-64
2022/05/21 11:18:41;;;;;;;8.40;4.78;;;;;;;23.13;64.52;97201.09;5017033;28;20051;-63
2022/05/21 11:21:19;;;;;;;11.70;4.82;;;;;;;22.76;64.71;97196.81;5016678;28;20481;-65
2022/05/21 11:23:56;;;;;;;8.27;3.92;;;;;;;23.03;65.27;97196.53;5022156;28;20037;-63
2022/05/21 11:26:31;;;;;;;13.32;3.55;;;;;;;22.90;67.33;97194.47;5016604;28;20606;-64
2022/05/21 11:29:27;;;;;;;8.05;3.40;;;;;;;22.61;65.95;97201.97;5027944;28;20144;-62
2022/05/21 11:37:38;;;;;;;5.07;3.58;;;;;;;22.50;67.01;97188.25;4998583;28;20068;-62
2022/05/21 11:40:07;;;;;;;7.20;3.50;;;;;;;22.74;64.60;97186.06;5018955;28;20095;-69
2022/05/21 11:42:37;;;;;;;7.03;4.10;;;;;;;22.84;63.27;97192.63;5021661;28;20103;-66
2022/05/21 11:45:08;;;;;;;6.53;3.25;;;;;;;22.78;64.26;97192.38;5016592;28;20041;-62
2022/05/21 11:48:09;;;;;;;7.43;4.13;;;;;;;22.23;67.66;97194.03;5021318;28;20067;-63
2022/05/21 11:50:34;;;;;;;5.07;3.22;;;;;;;22.36;63.19;97192.16;5020692;28;20557;-63
2022/05/21 11:53:33;;;;;;;7.78;4.20;;;;;;;22.23;68.52;97186.44;5025223;28;20049;-63
2022/05/21 11:56:23;;;;;;;7.00;3.57;;;;;;;22.32;66.37;97192.22;5022820;28;20087;-65
2022/05/21 11:59:00;;;;;;;7.00;3.72;;;;;;;22.33;64.40;97182.66;5019445;28;20045;-62
2022/05/21 12:01:38;;;;;;;6.57;4.05;;;;;;;22.41;65.89;97174.91;5016754;28;20045;-62
2022/05/21 12:04:06;;;;;;;8.38;3.80;;;;;;;22.55;64.19;97179.38;5017015;28;20046;-65
2022/05/21 12:06:41;;;;;;;9.13;4.25;;;;;;;22.91;68.07;97162.50;5020402;28;20113;-60
2022/05/21 12:09:10;;;;;;;5.03;3.88;;;;;;;22.85;63.69;97171.84;5015623;28;20100;-64
2022/05/21 12:11:40;;;;;;;7.07;4.22;;;;;;;22.82;64.38;97172.75;5021258;28;20049;-62
2022/05/21 12:14:12;;;;;;;7.82;4.22;;;;;;;22.41;67.45;97182.50;5016861;28;20080;-65
2022/05/21 12:16:38;;;;;;;9.30;4.70;;;;;;;22.40;68.20;97169.75;5020829;28;20055;-64